Minerva Grace — SVBN7 — position and weather

sailwx.info

Track history (hours):
 
Tides and Currents Weather Stations Pressure Air Temp Water Temp Dewpoint Dewpoint Depression Visibility Wind Speed Wind Dir Waves Ship Positions

Minerva Grace

Last reported at 2015-Jan-19 23:18 UTC. Time now 2015-Jan-26 18:31 UTC.
Position N 47°09' W 052°25'.

Length 183 m; draft 8.4 m.

Type: Tanker. MMSI: 241193000.

Date/timePositionNaut miles runAvg speedWind from/ knotsBaromVisibWave heightAir tempDewpointWater temp
2015-Jan-19 23:18N 47°09' W 052°25'7 9.5
2015-Jan-19 22:33N 47°16' W 052°22'10 9.6
2015-Jan-19 21:31N 47°26' W 052°18'10 9.2
2015-Jan-19 20:27N 47°35' W 052°18'27 0.6
2015-Jan-18 01:28N 47°33' W 052°57'0 0.0
2015-Jan-17 22:10N 47°33' W 052°57'0 0.0
2015-Jan-17 21:31N 47°33' W 052°57'0 0.0
2015-Jan-17 20:25N 47°33' W 052°57'0 0.1
2015-Jan-17 19:25N 47°33' W 052°57'0 0.0
2015-Jan-17 18:25N 47°33' W 052°57'0 0.0
2015-Jan-17 17:19N 47°33' W 052°57'0 0.0
2015-Jan-17 16:22N 47°33' W 052°57'0 0.1
2015-Jan-17 15:31N 47°33' W 052°57'0 0.0
2015-Jan-17 01:32N 47°33' W 052°57'0 0.1
2015-Jan-17 00:08N 47°33' W 052°58'0 0.0
2015-Jan-16 22:32N 47°33' W 052°58'0 0.0
2015-Jan-16 20:32N 47°33' W 052°58'  
2015-Jan-14 03:25N 47°33' W 052°57'6 0.2
2015-Jan-12 10:22N 47°30' W 053°06'3 1.9
2015-Jan-12 08:32N 47°31' W 053°01'0 0.0
2015-Jan-12 07:14N 47°31' W 053°01'0 0.0
2015-Jan-12 04:23N 47°31' W 053°01'0 0.0
2015-Jan-12 03:30N 47°31' W 053°01'0 0.1
2015-Jan-12 02:30N 47°31' W 053°01'0 0.0
2015-Jan-12 00:10N 47°31' W 053°01'0 0.1
2015-Jan-11 23:16N 47°31' W 053°01'4 0.5
2015-Jan-11 15:28N 47°34' W 053°05'21 6.6
2015-Jan-11 12:22N 47°42' W 052°36'8 9.9
2015-Jan-11 11:33N 47°34' W 052°38'7 6.5
2015-Jan-11 10:31N 47°29' W 052°32'1311.4
2015-Jan-11 09:23N 47°16' W 052°28'  
Track history (hours):
 
Tides and Currents Weather Stations Pressure Air Temp Water Temp Dewpoint Dewpoint Depression Visibility Wind Speed Wind Dir Waves Ship Positions

Minerva Grace

Last reported at 2015-Jan-19 23:18 UTC. Time now 2015-Jan-26 18:31 UTC.
Position N 47°09' W 052°25'.

Length 183 m; draft 8.4 m.

Type: Tanker. MMSI: 241193000.

Date/timePositionNaut miles runAvg speedWind from/ knotsBaromVisibWave heightAir tempDewpointWater temp
2015-Jan-19 23:18N 47°09' W 052°25'7 9.5
2015-Jan-19 22:33N 47°16' W 052°22'10 9.6
2015-Jan-19 21:31N 47°26' W 052°18'10 9.2
2015-Jan-19 20:27N 47°35' W 052°18'27 0.6
2015-Jan-18 01:28N 47°33' W 052°57'0 0.0
2015-Jan-17 22:10N 47°33' W 052°57'0 0.0
2015-Jan-17 21:31N 47°33' W 052°57'0 0.0
2015-Jan-17 20:25N 47°33' W 052°57'0 0.1
2015-Jan-17 19:25N 47°33' W 052°57'0 0.0
2015-Jan-17 18:25N 47°33' W 052°57'0 0.0
2015-Jan-17 17:19N 47°33' W 052°57'0 0.0
2015-Jan-17 16:22N 47°33' W 052°57'0 0.1
2015-Jan-17 15:31N 47°33' W 052°57'0 0.0
2015-Jan-17 01:32N 47°33' W 052°57'0 0.1
2015-Jan-17 00:08N 47°33' W 052°58'0 0.0
2015-Jan-16 22:32N 47°33' W 052°58'0 0.0
2015-Jan-16 20:32N 47°33' W 052°58'  
2015-Jan-14 03:25N 47°33' W 052°57'6 0.2
2015-Jan-12 10:22N 47°30' W 053°06'3 1.9
2015-Jan-12 08:32N 47°31' W 053°01'0 0.0
2015-Jan-12 07:14N 47°31' W 053°01'0 0.0
2015-Jan-12 04:23N 47°31' W 053°01'0 0.0
2015-Jan-12 03:30N 47°31' W 053°01'0 0.1
2015-Jan-12 02:30N 47°31' W 053°01'0 0.0
2015-Jan-12 00:10N 47°31' W 053°01'0 0.1
2015-Jan-11 23:16N 47°31' W 053°01'4 0.5
2015-Jan-11 15:28N 47°34' W 053°05'21 6.6
2015-Jan-11 12:22N 47°42' W 052°36'8 9.9
2015-Jan-11 11:33N 47°34' W 052°38'7 6.5
2015-Jan-11 10:31N 47°29' W 052°32'1311.4
2015-Jan-11 09:23N 47°16' W 052°28'  

Dump ship's entire track history